Terminal Aerodrome Forecast
Issued by NWS

Home | Current Version | Previous Version | Text Only | Print | Product List | Glossary Off
Versions: 1 2 3 4 5 6 7 8 9 10 11 12 13 14 15 16 17 18 19 20 21 22 23 24 25 26

000
FTUS43 KLOT 042333
TAFGYY
TAF
KGYY 042333Z 0500/0524 36012G21KT P6SM VCSH BKN035 OVC045
     FM050400 01012G23KT P6SM BKN020 OVC040
     FM051400 36012G23KT P6SM BKN035
     FM051800 02011G18KT P6SM FEW040=

USA.gov is the U.S. government's official web portal to all federal, state and local government web resources and services.